createdAt,value
2023-04-28T00:00:00.201Z,8.30
2023-04-28T00:01:00.186Z,11.20
2023-04-28T00:02:00.176Z,8.00
2023-04-28T00:03:00.366Z,8.90
2023-04-28T00:04:00.345Z,8.10
2023-04-28T00:05:00.361Z,7.80
2023-04-28T00:06:00.378Z,7.90
2023-04-28T00:07:00.189Z,8.00
2023-04-28T00:08:00.127Z,11.10
2023-04-28T00:09:00.137Z,7.50
2023-04-28T00:10:00.128Z,8.20
2023-04-28T00:11:00.140Z,8.10
2023-04-28T00:12:00.149Z,8.90
2023-04-28T00:13:00.154Z,9.30
2023-04-28T00:14:00.138Z,8.10
2023-04-28T00:15:00.096Z,7.60
2023-04-28T00:16:00.156Z,7.20
2023-04-28T00:17:00.160Z,7.80
2023-04-28T00:18:00.260Z,7.60
2023-04-28T00:19:00.084Z,7.80
2023-04-28T00:20:00.124Z,7.30
2023-04-28T00:21:00.058Z,10.20
2023-04-28T00:22:00.071Z,14.80
2023-04-28T00:23:00.121Z,8.40
2023-04-28T00:24:00.101Z,12.70
2023-04-28T00:25:00.055Z,7.90
2023-04-28T00:26:00.085Z,7.30
2023-04-28T00:27:00.029Z,9.40
2023-04-28T00:28:00.082Z,10.50
2023-04-28T00:29:00.247Z,8.50
2023-04-28T00:30:00.042Z,7.90
2023-04-28T00:31:00.028Z,7.40
2023-04-28T00:32:00.050Z,14.90
2023-04-28T00:33:00.126Z,15.40
2023-04-28T00:34:00.025Z,12.80
2023-04-28T00:34:59.985Z,7.80
2023-04-28T00:35:59.993Z,12.10
2023-04-28T00:36:59.995Z,7.80
2023-04-28T00:38:00.004Z,9.60
2023-04-28T00:39:00.017Z,8.60
2023-04-28T00:40:00.026Z,16.50
2023-04-28T00:41:00.011Z,9.90
2023-04-28T00:41:59.970Z,10.20
2023-04-28T00:43:00.007Z,10.30
2023-04-28T00:43:59.959Z,8.10
2023-04-28T00:44:59.991Z,9.40
2023-04-28T00:46:00.037Z,8.50
2023-04-28T00:46:59.934Z,7.80
2023-04-28T00:47:59.979Z,10.00
2023-04-28T00:48:59.930Z,15.30
2023-04-28T00:49:59.960Z,10.50
2023-04-28T00:50:59.931Z,10.10
2023-04-28T00:51:59.917Z,9.10
2023-04-28T00:52:59.920Z,8.50
2023-04-28T00:53:59.929Z,11.80
2023-04-28T00:54:59.899Z,8.70
2023-04-28T00:55:59.937Z,9.90
2023-04-28T00:56:59.931Z,8.00
2023-04-28T00:57:59.896Z,8.40
2023-04-28T00:58:59.897Z,7.90
2023-04-28T00:59:59.899Z,8.30
2023-04-28T01:00:59.911Z,8.70
2023-04-28T01:01:59.930Z,8.80
2023-04-28T01:03:00.061Z,8.90
2023-04-28T01:04:00.079Z,8.30
2023-04-28T01:04:59.866Z,11.30
2023-04-28T01:05:59.852Z,9.90
2023-04-28T01:06:59.916Z,7.80
2023-04-28T01:07:59.851Z,8.40
2023-04-28T01:08:59.853Z,8.20
2023-04-28T01:09:59.841Z,8.40
2023-04-28T01:10:59.838Z,12.10
2023-04-28T01:11:59.854Z,13.30
2023-04-28T01:12:59.848Z,11.90
2023-04-28T01:13:59.874Z,8.50
2023-04-28T01:14:59.808Z,8.10
2023-04-28T01:15:59.832Z,8.80
2023-04-28T01:16:59.936Z,14.80
2023-04-28T01:17:59.847Z,9.30
2023-04-28T01:18:59.794Z,9.60
2023-04-28T01:19:59.820Z,10.70
2023-04-28T01:20:59.799Z,9.30
2023-04-28T01:21:59.781Z,12.20
2023-04-28T01:22:59.808Z,8.80
2023-04-28T01:23:59.787Z,9.20
2023-04-28T01:24:59.771Z,10.10
2023-04-28T01:25:59.772Z,9.20
2023-04-28T01:26:59.771Z,9.50
2023-04-28T01:27:59.782Z,9.00
2023-04-28T01:28:59.787Z,8.50
2023-04-28T01:29:59.763Z,13.40
2023-04-28T01:30:59.739Z,15.80
2023-04-28T01:31:59.920Z,10.70
2023-04-28T01:32:59.820Z,9.30
2023-04-28T01:33:59.745Z,9.00
2023-04-28T01:34:59.764Z,12.50
2023-04-28T01:35:59.729Z,11.20
2023-04-28T01:36:59.740Z,8.90
2023-04-28T01:37:59.720Z,9.70
2023-04-28T01:38:59.766Z,9.80
2023-04-28T01:39:59.713Z,9.50
2023-04-28T01:40:59.761Z,20.80
2023-04-28T01:41:59.691Z,9.50
2023-04-28T01:42:59.707Z,9.10
2023-04-28T01:43:59.716Z,10.10
2023-04-28T01:44:59.706Z,18.30
2023-04-28T01:45:59.736Z,10.80
2023-04-28T01:46:59.674Z,9.20
2023-04-28T01:47:59.783Z,8.80
2023-04-28T01:48:59.670Z,10.00
2023-04-28T01:49:59.715Z,8.60
2023-04-28T01:50:59.655Z,15.50
2023-04-28T01:51:59.645Z,9.00
2023-04-28T01:52:59.635Z,12.80
2023-04-28T01:53:59.715Z,9.30
2023-04-28T01:54:59.689Z,12.80
2023-04-28T01:55:59.670Z,8.90
2023-04-28T01:56:59.671Z,9.20
2023-04-28T01:57:59.630Z,12.40
2023-04-28T01:58:59.715Z,14.40
2023-04-28T01:59:59.681Z,14.70
2023-04-28T02:00:59.710Z,9.30
2023-04-28T02:01:59.741Z,12.50
2023-04-28T02:02:59.696Z,10.60
2023-04-28T02:03:59.724Z,10.60
2023-04-28T02:04:59.743Z,9.60
2023-04-28T02:05:59.619Z,8.70
2023-04-28T02:06:59.606Z,12.10
2023-04-28T02:07:59.600Z,9.90
2023-04-28T02:08:59.596Z,10.70
2023-04-28T02:09:59.598Z,9.30
2023-04-28T02:10:59.611Z,9.00
2023-04-28T02:11:59.565Z,9.10
2023-04-28T02:12:59.583Z,8.70
2023-04-28T02:13:59.577Z,10.50
2023-04-28T02:14:59.544Z,9.60
2023-04-28T02:15:59.603Z,11.10
2023-04-28T02:16:59.563Z,9.30
2023-04-28T02:17:59.563Z,9.70
2023-04-28T02:18:59.564Z,11.30
2023-04-28T02:19:59.515Z,10.60
2023-04-28T02:20:59.525Z,14.40
2023-04-28T02:21:59.571Z,14.20
2023-04-28T02:22:59.567Z,10.10
2023-04-28T02:23:59.496Z,13.40
2023-04-28T02:24:59.517Z,15.90
2023-04-28T02:25:59.532Z,14.40
2023-04-28T02:26:59.537Z,14.80
2023-04-28T02:27:59.494Z,10.70
2023-04-28T02:28:59.497Z,16.70
2023-04-28T02:29:59.480Z,10.80
2023-04-28T02:30:59.522Z,10.30
2023-04-28T02:31:59.564Z,10.30
2023-04-28T02:32:59.522Z,11.40
2023-04-28T02:33:59.488Z,15.50
2023-04-28T02:34:59.501Z,9.60
2023-04-28T02:35:59.467Z,12.60
2023-04-28T02:36:59.459Z,10.30
2023-04-28T02:37:59.495Z,13.40
2023-04-28T02:38:59.444Z,9.60
2023-04-28T02:39:59.471Z,14.90
2023-04-28T02:40:59.466Z,9.40
2023-04-28T02:41:59.417Z,10.00
2023-04-28T02:42:59.443Z,10.10
2023-04-28T02:43:59.442Z,10.20
2023-04-28T02:44:59.454Z,9.70
2023-04-28T02:45:59.419Z,9.80
2023-04-28T02:46:59.430Z,11.40
2023-04-28T02:47:59.462Z,9.60
2023-04-28T02:48:59.411Z,13.60
2023-04-28T02:49:59.382Z,11.60
2023-04-28T02:50:59.382Z,10.00
2023-04-28T02:51:59.398Z,13.10
2023-04-28T02:52:59.398Z,10.20
2023-04-28T02:53:59.405Z,10.50
2023-04-28T02:54:59.366Z,18.90
2023-04-28T02:55:59.421Z,9.90
2023-04-28T02:57:00.352Z,10.80
2023-04-28T02:57:59.374Z,13.80
2023-04-28T02:58:59.409Z,14.00
2023-04-28T02:59:59.375Z,15.60
2023-04-28T03:00:59.389Z,10.20
2023-04-28T03:01:59.338Z,10.80
2023-04-28T03:02:59.478Z,9.90
2023-04-28T03:03:59.410Z,13.50
2023-04-28T03:04:59.353Z,12.10
2023-04-28T03:05:59.370Z,10.50
2023-04-28T03:06:59.305Z,13.00
2023-04-28T03:07:59.309Z,11.70
2023-04-28T03:08:59.335Z,11.20
2023-04-28T03:09:59.337Z,10.30
2023-04-28T03:10:59.311Z,10.30
2023-04-28T03:11:59.288Z,17.80
2023-04-28T03:12:59.319Z,13.00
2023-04-28T03:13:59.266Z,20.20
2023-04-28T03:15:00.287Z,16.40
2023-04-28T03:15:59.379Z,12.80
2023-04-28T03:16:59.390Z,17.80
2023-04-28T03:18:00.313Z,10.60
2023-04-28T03:18:59.255Z,10.40
2023-04-28T03:19:59.246Z,10.40
2023-04-28T03:20:59.283Z,11.20
2023-04-28T03:21:59.262Z,17.40
2023-04-28T03:22:59.228Z,10.60
2023-04-28T03:23:59.250Z,10.90
2023-04-28T03:24:59.216Z,13.60
2023-04-28T03:25:59.215Z,11.30
2023-04-28T03:26:59.253Z,10.90
2023-04-28T03:27:59.228Z,14.30
2023-04-28T03:28:59.190Z,10.90
2023-04-28T03:29:59.218Z,11.40
2023-04-28T03:30:59.177Z,10.80
2023-04-28T03:31:59.241Z,11.60
2023-04-28T03:32:59.205Z,11.70
2023-04-28T03:33:59.184Z,12.70
2023-04-28T03:34:59.155Z,15.00
2023-04-28T03:35:59.195Z,10.70
2023-04-28T03:36:59.203Z,17.30
2023-04-28T03:37:59.163Z,11.30
2023-04-28T03:38:59.123Z,13.80
2023-04-28T03:40:00.159Z,14.10
2023-04-28T03:40:59.145Z,14.30
2023-04-28T03:41:59.171Z,11.30
2023-04-28T03:42:59.162Z,11.00
2023-04-28T03:44:00.142Z,10.80
2023-04-28T03:44:59.146Z,10.60
2023-04-28T03:45:59.148Z,10.70
2023-04-28T03:46:59.098Z,12.40
2023-04-28T03:47:59.183Z,11.60
2023-04-28T03:48:59.115Z,12.30
2023-04-28T03:49:59.115Z,15.20
2023-04-28T03:50:59.093Z,14.80
2023-04-28T03:51:59.117Z,11.40
2023-04-28T03:52:59.097Z,11.50
2023-04-28T03:53:59.132Z,11.50
2023-04-28T03:54:59.044Z,10.60
2023-04-28T03:55:59.040Z,11.90
2023-04-28T03:56:59.048Z,11.20
2023-04-28T03:57:59.046Z,15.50
2023-04-28T03:58:59.055Z,11.40
2023-04-28T03:59:59.064Z,11.10
2023-04-28T04:00:59.036Z,11.60
2023-04-28T04:01:59.035Z,11.80
2023-04-28T04:02:59.133Z,12.30
2023-04-28T04:03:59.254Z,12.50
2023-04-28T04:04:59.291Z,17.90
2023-04-28T04:05:59.015Z,12.80
2023-04-28T04:06:59.005Z,14.40
2023-04-28T04:08:00.021Z,13.50
2023-04-28T04:08:58.989Z,13.50
2023-04-28T04:09:59.025Z,19.90
2023-04-28T04:10:58.975Z,20.40
2023-04-28T04:11:58.998Z,13.50
2023-04-28T04:12:58.993Z,16.90
2023-04-28T04:13:58.977Z,13.40
2023-04-28T04:14:58.964Z,15.30
2023-04-28T04:15:58.996Z,12.90
2023-04-28T04:16:59.101Z,17.30
2023-04-28T04:17:59.211Z,16.30
2023-04-28T04:18:59.021Z,12.10
2023-04-28T04:19:59.062Z,14.00
2023-04-28T04:20:58.959Z,13.70
2023-04-28T04:21:58.961Z,15.70
2023-04-28T04:22:58.950Z,12.80
2023-04-28T04:23:58.919Z,12.70
2023-04-28T04:24:58.960Z,14.60
2023-04-28T04:25:58.918Z,12.20
2023-04-28T04:26:58.980Z,12.30
2023-04-28T04:27:59.023Z,13.60
2023-04-28T04:28:58.959Z,21.60
2023-04-28T04:29:58.893Z,13.10
2023-04-28T04:30:58.940Z,13.20
2023-04-28T04:31:58.933Z,15.70
2023-04-28T04:32:58.982Z,15.10
2023-04-28T04:33:58.888Z,12.80
2023-04-28T04:34:58.892Z,13.40
2023-04-28T04:35:58.898Z,13.10
2023-04-28T04:36:58.886Z,13.40
2023-04-28T04:37:58.929Z,12.90
2023-04-28T04:38:58.852Z,12.30
2023-04-28T04:39:58.849Z,17.90
2023-04-28T04:40:58.853Z,13.40
2023-04-28T04:41:58.882Z,14.50
2023-04-28T04:42:58.909Z,12.80
2023-04-28T04:43:58.839Z,18.80
2023-04-28T04:44:58.836Z,12.30
2023-04-28T04:45:58.835Z,13.50
2023-04-28T04:46:58.934Z,13.50
2023-04-28T04:47:58.870Z,12.80
2023-04-28T04:48:58.820Z,13.00
2023-04-28T04:49:58.859Z,12.40
2023-04-28T04:50:58.829Z,16.70
2023-04-28T04:51:58.793Z,13.90
2023-04-28T04:52:58.843Z,13.20
2023-04-28T04:53:58.783Z,15.70
2023-04-28T04:54:58.783Z,19.30
2023-04-28T04:55:58.803Z,14.90
2023-04-28T04:56:58.788Z,16.90
2023-04-28T04:57:58.799Z,14.60
2023-04-28T04:58:58.792Z,18.20
2023-04-28T04:59:58.788Z,15.20
2023-04-28T05:00:58.792Z,13.90
2023-04-28T05:01:58.810Z,15.30
2023-04-28T05:02:58.899Z,14.80
2023-04-28T05:03:58.966Z,14.00
2023-04-28T05:05:12.398Z,13.60
2023-04-28T05:06:00.734Z,16.90
2023-04-28T05:06:58.749Z,15.50
2023-04-28T05:07:58.746Z,18.50
2023-04-28T05:08:58.751Z,13.80
2023-04-28T05:09:58.731Z,14.70
2023-04-28T05:10:58.732Z,14.00
2023-04-28T05:11:58.734Z,13.30
2023-04-28T05:12:58.767Z,14.70
2023-04-28T05:13:58.752Z,17.10
2023-04-28T05:14:58.733Z,13.80
2023-04-28T05:15:58.744Z,20.40
2023-04-28T05:16:58.757Z,14.00
2023-04-28T05:17:58.863Z,17.50
2023-04-28T05:18:58.682Z,18.20
2023-04-28T05:19:58.729Z,14.10
2023-04-28T05:20:58.696Z,15.70
2023-04-28T05:21:58.691Z,18.30
2023-04-28T05:22:58.669Z,14.70
2023-04-28T05:23:58.777Z,14.80
2023-04-28T05:24:58.721Z,14.80
2023-04-28T05:25:58.680Z,15.30
2023-04-28T05:26:58.673Z,21.80
2023-04-28T05:27:58.664Z,15.00
2023-04-28T05:28:58.671Z,16.20
2023-04-28T05:29:58.690Z,15.90
2023-04-28T05:30:58.689Z,15.40
2023-04-28T05:31:58.666Z,14.50
2023-04-28T05:32:58.711Z,15.60
2023-04-28T05:33:58.621Z,16.20
2023-04-28T05:34:58.630Z,14.70
2023-04-28T05:35:58.662Z,14.90
2023-04-28T05:36:58.631Z,15.70
2023-04-28T05:37:58.633Z,15.00
2023-04-28T05:38:58.605Z,15.60
2023-04-28T05:39:58.605Z,14.90
2023-04-28T05:40:58.599Z,15.20
2023-04-28T05:41:58.669Z,16.20
2023-04-28T05:42:58.579Z,17.10
2023-04-28T05:43:58.617Z,15.50
2023-04-28T05:44:58.584Z,16.20
2023-04-28T05:45:58.611Z,15.90
2023-04-28T05:46:58.643Z,16.40
2023-04-28T05:47:58.610Z,18.40
2023-04-28T05:48:58.602Z,17.10
2023-04-28T05:49:58.570Z,17.70
2023-04-28T05:50:58.575Z,17.70
2023-04-28T05:51:58.525Z,21.20
2023-04-28T05:52:58.612Z,17.00
2023-04-28T05:53:58.529Z,18.80
2023-04-28T05:54:58.564Z,17.90
2023-04-28T05:55:58.516Z,16.90
2023-04-28T05:57:00.840Z,24.20
2023-04-28T05:57:58.532Z,16.50
2023-04-28T05:58:58.509Z,16.60
2023-04-28T05:59:58.499Z,23.90
2023-04-28T06:00:58.496Z,16.10
2023-04-28T06:01:58.580Z,17.90
2023-04-28T06:02:58.731Z,20.40
2023-04-28T06:03:58.638Z,18.40
2023-04-28T06:04:58.744Z,15.80
2023-04-28T06:05:58.539Z,15.70
2023-04-28T06:06:58.484Z,25.50
2023-04-28T06:07:58.459Z,15.70
2023-04-28T06:08:58.483Z,16.00
2023-04-28T06:09:58.445Z,16.50
2023-04-28T06:10:58.462Z,23.20
2023-04-28T06:11:58.433Z,25.80
2023-04-28T06:12:58.432Z,16.20
2023-04-28T06:13:58.463Z,16.70
2023-04-28T06:14:58.437Z,14.70
2023-04-28T06:15:58.480Z,14.70
2023-04-28T06:16:58.482Z,16.20
2023-04-28T06:17:58.445Z,21.20
2023-04-28T06:18:58.441Z,16.00
2023-04-28T06:19:58.399Z,14.40
2023-04-28T06:20:58.418Z,14.20
2023-04-28T06:21:58.410Z,18.30
2023-04-28T06:22:58.392Z,15.50
2023-04-28T06:23:58.413Z,15.50
2023-04-28T06:24:58.475Z,15.40
2023-04-28T06:25:58.442Z,20.00
2023-04-28T06:26:58.369Z,16.10
2023-04-28T06:27:58.374Z,22.50
2023-04-28T06:28:58.386Z,17.10
2023-04-28T06:29:58.422Z,18.50
2023-04-28T06:30:58.451Z,18.40
2023-04-28T06:31:58.413Z,16.10
2023-04-28T06:32:58.420Z,20.70
2023-04-28T06:33:58.345Z,20.10
2023-04-28T06:34:58.681Z,22.90
2023-04-28T06:35:59.324Z,16.60
2023-04-28T06:36:58.368Z,20.80
2023-04-28T06:37:58.340Z,15.90
2023-04-28T06:38:58.457Z,16.10
2023-04-28T06:39:58.302Z,15.10
2023-04-28T06:40:58.315Z,17.10
2023-04-28T06:41:58.351Z,21.40
2023-04-28T06:42:58.302Z,15.20
2023-04-28T06:43:58.284Z,14.50
2023-04-28T06:44:58.280Z,13.50
2023-04-28T06:45:58.320Z,16.00
2023-04-28T06:46:58.347Z,19.10
2023-04-28T06:47:58.302Z,17.50
2023-04-28T06:48:58.298Z,13.60
2023-04-28T06:49:58.254Z,17.50
2023-04-28T06:50:58.289Z,16.90
2023-04-28T06:51:58.290Z,15.70
2023-04-28T06:52:58.233Z,18.30
2023-04-28T06:53:58.248Z,13.40
2023-04-28T06:54:58.228Z,14.60
2023-04-28T06:55:58.256Z,14.00
2023-04-28T06:56:58.273Z,17.80
2023-04-28T06:57:58.215Z,14.40
2023-04-28T06:58:58.214Z,12.40
2023-04-28T06:59:58.201Z,16.30
2023-04-28T07:00:58.275Z,15.40
2023-04-28T07:01:58.255Z,16.40
2023-04-28T07:02:58.692Z,15.10
2023-04-28T07:03:58.278Z,13.50
2023-04-28T07:04:58.234Z,14.40
2023-04-28T07:05:58.189Z,14.50
2023-04-28T07:06:58.198Z,14.10
2023-04-28T07:07:58.207Z,16.20
2023-04-28T07:08:58.178Z,15.70
2023-04-28T07:09:58.257Z,14.80
2023-04-28T07:10:58.177Z,18.50
2023-04-28T07:11:58.206Z,20.20
2023-04-28T07:12:58.158Z,14.70
2023-04-28T07:13:59.076Z,15.40
2023-04-28T07:14:58.217Z,16.80
2023-04-28T07:15:58.223Z,14.80
2023-04-28T07:16:58.194Z,18.00
2023-04-28T07:17:58.201Z,15.30
2023-04-28T07:18:58.337Z,15.50
2023-04-28T07:19:58.366Z,21.70
2023-04-28T07:20:58.172Z,17.20
2023-04-28T07:21:58.135Z,15.40
2023-04-28T07:22:58.117Z,19.90
2023-04-28T07:23:58.149Z,15.30
2023-04-28T07:24:58.119Z,15.90
2023-04-28T07:25:58.112Z,15.10
2023-04-28T07:26:58.107Z,29.30
2023-04-28T07:27:58.135Z,18.80
2023-04-28T07:28:58.076Z,14.80
2023-04-28T07:29:58.285Z,15.20
2023-04-28T07:30:58.277Z,14.70
2023-04-28T07:31:58.180Z,19.50
2023-04-28T07:32:58.123Z,15.40
2023-04-28T07:33:58.082Z,16.00
2023-04-28T07:34:58.087Z,15.00
2023-04-28T07:35:58.085Z,14.70
2023-04-28T07:36:58.051Z,15.30
2023-04-28T07:37:58.077Z,17.10
2023-04-28T07:38:58.067Z,15.80
2023-04-28T07:39:58.030Z,18.30
2023-04-28T07:40:58.034Z,18.40
2023-04-28T07:41:58.058Z,17.80
2023-04-28T07:42:58.069Z,22.40
2023-04-28T07:43:58.069Z,18.70
2023-04-28T07:44:58.022Z,16.50
2023-04-28T07:45:58.058Z,18.10
2023-04-28T07:46:58.020Z,18.60
2023-04-28T07:47:58.165Z,22.90
2023-04-28T07:48:58.032Z,21.50
2023-04-28T07:49:57.995Z,26.50
2023-04-28T07:50:57.982Z,16.30
2023-04-28T07:51:57.998Z,16.70
2023-04-28T07:52:58.022Z,15.10
2023-04-28T07:53:58.980Z,19.60
2023-04-28T07:54:57.956Z,16.60
2023-04-28T07:55:57.977Z,14.80
2023-04-28T07:56:57.955Z,16.20
2023-04-28T07:57:57.978Z,15.60
2023-04-28T07:58:58.006Z,16.60
2023-04-28T07:59:57.964Z,18.10
2023-04-28T08:00:57.955Z,22.00
2023-04-28T08:01:57.967Z,17.40
2023-04-28T08:02:58.112Z,17.50
2023-04-28T08:03:58.122Z,19.70
2023-04-28T08:04:58.065Z,20.90
2023-04-28T08:05:57.993Z,16.50
2023-04-28T08:06:57.950Z,17.80
2023-04-28T08:07:57.918Z,21.00
2023-04-28T08:08:57.963Z,18.00
2023-04-28T08:09:58.000Z,20.20
2023-04-28T08:10:57.901Z,25.10
2023-04-28T08:11:57.912Z,16.00
2023-04-28T08:12:57.990Z,16.30
2023-04-28T08:13:57.875Z,16.10
2023-04-28T08:14:57.907Z,16.60
2023-04-28T08:15:57.878Z,17.50
2023-04-28T08:16:57.936Z,16.80
2023-04-28T08:17:57.900Z,17.70
2023-04-28T08:18:58.031Z,16.00
2023-04-28T08:19:57.858Z,20.60
2023-04-28T08:20:57.848Z,18.00
2023-04-28T08:21:57.899Z,16.60
2023-04-28T08:22:57.990Z,21.30
2023-04-28T08:23:57.934Z,15.60
2023-04-28T08:24:57.825Z,16.50
2023-04-28T08:25:57.815Z,18.20
2023-04-28T08:26:57.803Z,18.20
2023-04-28T08:27:57.845Z,16.30
2023-04-28T08:28:57.909Z,15.40
2023-04-28T08:29:57.799Z,15.20
2023-04-28T08:30:57.907Z,16.20
2023-04-28T08:31:57.851Z,17.90
2023-04-28T08:32:57.836Z,15.20
2023-04-28T08:33:57.797Z,16.90
2023-04-28T08:34:57.778Z,17.30
2023-04-28T08:35:57.757Z,16.10
2023-04-28T08:36:57.769Z,26.10
2023-04-28T08:37:57.781Z,19.70
2023-04-28T08:38:57.819Z,19.50
2023-04-28T08:39:57.738Z,16.90
2023-04-28T08:40:57.737Z,24.50
2023-04-28T08:41:57.731Z,20.30
2023-04-28T08:42:57.717Z,17.00
2023-04-28T08:43:57.757Z,18.40
2023-04-28T08:44:57.733Z,17.50
2023-04-28T08:45:57.714Z,19.80
2023-04-28T08:46:57.744Z,17.50
2023-04-28T08:47:57.706Z,14.40
2023-04-28T08:48:57.706Z,17.90
2023-04-28T08:49:57.710Z,16.50
2023-04-28T08:50:57.715Z,20.90
2023-04-28T08:51:58.681Z,16.30
2023-04-28T08:52:57.658Z,18.80
2023-04-28T08:54:18.884Z,16.10
2023-04-28T08:54:59.699Z,18.20
2023-04-28T08:55:57.687Z,17.80
2023-04-28T08:56:57.644Z,17.80
2023-04-28T08:57:57.657Z,16.90
2023-04-28T08:58:57.688Z,18.40
2023-04-28T08:59:57.654Z,16.20
2023-04-28T09:00:57.669Z,15.90
2023-04-28T09:01:57.792Z,16.80
2023-04-28T09:02:57.886Z,18.00
2023-04-28T09:03:57.902Z,17.20
2023-04-28T09:04:57.920Z,17.10
2023-04-28T09:05:57.670Z,17.20
2023-04-28T09:06:57.695Z,21.20
2023-04-28T09:07:57.606Z,19.50
2023-04-28T09:08:57.598Z,17.60
2023-04-28T09:09:57.668Z,22.90
2023-04-28T09:10:57.574Z,18.30
2023-04-28T09:11:57.564Z,17.00
2023-04-28T09:12:57.573Z,19.70
2023-04-28T09:13:57.600Z,16.80
2023-04-28T09:14:57.578Z,16.10
2023-04-28T09:15:57.573Z,21.20
2023-04-28T09:16:57.633Z,24.40
2023-04-28T09:17:57.546Z,17.60
2023-04-28T09:18:57.520Z,17.50
2023-04-28T09:19:57.515Z,17.10
2023-04-28T09:20:57.546Z,18.00
2023-04-28T09:21:57.571Z,19.90
2023-04-28T09:22:57.554Z,18.30
2023-04-28T09:23:57.516Z,17.90
2023-04-28T09:24:57.479Z,17.00
2023-04-28T09:25:57.540Z,17.30
2023-04-28T09:26:57.478Z,18.20
2023-04-28T09:27:57.518Z,16.50
2023-04-28T09:28:57.500Z,15.70
2023-04-28T09:29:57.550Z,17.50
2023-04-28T09:30:57.461Z,19.70
2023-04-28T09:31:57.512Z,15.80
2023-04-28T09:32:57.472Z,17.60
2023-04-28T09:33:58.520Z,23.10
2023-04-28T09:34:58.455Z,19.60
2023-04-28T09:35:57.525Z,18.70
2023-04-28T09:36:57.415Z,20.40
2023-04-28T09:37:57.416Z,16.50
2023-04-28T09:38:57.424Z,19.00
2023-04-28T09:39:57.418Z,18.90
2023-04-28T09:40:57.391Z,29.70
2023-04-28T09:41:57.399Z,21.00
2023-04-28T09:42:57.382Z,24.50
2023-04-28T09:43:57.402Z,17.60
2023-04-28T09:44:57.413Z,18.00
2023-04-28T09:45:57.426Z,18.40
2023-04-28T09:46:57.357Z,17.30
2023-04-28T09:47:57.389Z,15.40
2023-04-28T09:48:57.393Z,16.40
2023-04-28T09:49:57.357Z,17.50
2023-04-28T09:50:57.333Z,17.30
2023-04-28T09:51:57.329Z,17.80
2023-04-28T09:52:57.589Z,16.50
2023-04-28T09:53:57.410Z,18.80
2023-04-28T09:54:57.321Z,17.00
2023-04-28T09:55:57.374Z,17.40
2023-04-28T09:56:57.303Z,17.90
2023-04-28T09:57:57.297Z,16.20
2023-04-28T09:58:57.320Z,15.50
2023-04-28T09:59:57.295Z,14.40
2023-04-28T10:00:57.373Z,15.00
2023-04-28T10:01:57.290Z,16.70
2023-04-28T10:02:57.340Z,16.60
2023-04-28T10:03:57.408Z,15.60
2023-04-28T10:04:57.529Z,16.60
2023-04-28T10:05:57.279Z,14.80
2023-04-28T10:06:57.274Z,15.10
2023-04-28T10:07:57.354Z,14.50
2023-04-28T10:08:57.256Z,14.90
2023-04-28T10:09:57.382Z,14.70
2023-04-28T10:10:57.257Z,15.10
2023-04-28T10:11:57.278Z,13.80
2023-04-28T10:12:57.302Z,15.10
2023-04-28T10:13:57.189Z,14.10
2023-04-28T10:14:57.237Z,15.10
2023-04-28T10:15:57.221Z,15.50
2023-04-28T10:16:57.217Z,16.10
2023-04-28T10:17:57.293Z,14.50
2023-04-28T10:18:57.151Z,14.80
2023-04-28T10:19:57.188Z,14.70
2023-04-28T10:20:57.166Z,19.40
2023-04-28T10:21:57.187Z,15.80
2023-04-28T10:22:58.175Z,16.30
2023-04-28T10:23:57.127Z,15.60
2023-04-28T10:24:57.137Z,15.20
2023-04-28T10:25:57.102Z,15.50
2023-04-28T10:26:57.171Z,19.50
2023-04-28T10:27:57.127Z,16.60
2023-04-28T10:28:57.104Z,16.00
2023-04-28T10:29:57.114Z,16.20
2023-04-28T10:30:57.123Z,17.30
2023-04-28T10:31:57.127Z,15.90
2023-04-28T10:32:57.253Z,18.50
2023-04-28T10:33:57.065Z,15.50
2023-04-28T10:34:57.078Z,16.70
2023-04-28T10:35:57.071Z,18.00
2023-04-28T10:36:57.059Z,19.80
2023-04-28T10:37:57.065Z,17.40
2023-04-28T10:38:57.073Z,16.00
2023-04-28T10:39:57.034Z,16.80
2023-04-28T10:40:57.021Z,18.50
2023-04-28T10:41:57.037Z,16.70
2023-04-28T10:42:57.026Z,15.90
2023-04-28T10:43:57.006Z,15.90
2023-04-28T10:44:57.011Z,15.60
2023-04-28T10:45:57.750Z,17.80
2023-04-28T10:46:58.147Z,15.50
2023-04-28T10:47:57.011Z,16.30
2023-04-28T10:48:57.012Z,17.60
2023-04-28T10:49:56.980Z,18.00
2023-04-28T10:50:56.967Z,18.70
2023-04-28T10:51:56.968Z,15.90
2023-04-28T10:52:56.967Z,20.20
2023-04-28T10:53:56.984Z,16.30
2023-04-28T10:54:56.946Z,15.70
2023-04-28T10:55:56.967Z,16.70
2023-04-28T10:56:56.955Z,17.10
2023-04-28T10:57:56.928Z,16.20
2023-04-28T10:58:56.973Z,19.20
2023-04-28T10:59:56.933Z,21.10
2023-04-28T11:00:57.127Z,17.10
2023-04-28T11:01:56.903Z,15.10
2023-04-28T11:02:56.979Z,18.00
2023-04-28T11:03:57.026Z,16.70
2023-04-28T11:04:56.981Z,20.70
2023-04-28T11:05:56.870Z,15.60
2023-04-28T11:06:56.943Z,15.60
2023-04-28T11:07:58.799Z,17.90
2023-04-28T11:08:56.871Z,14.80
2023-04-28T11:09:56.861Z,14.60
2023-04-28T11:10:56.894Z,16.00
2023-04-28T11:11:56.835Z,17.40
2023-04-28T11:12:56.833Z,15.10
2023-04-28T11:13:56.809Z,15.40
2023-04-28T11:14:56.855Z,15.10
2023-04-28T11:15:56.832Z,23.30
2023-04-28T11:16:56.823Z,21.20
2023-04-28T11:17:56.888Z,16.00
2023-04-28T11:18:56.825Z,19.30
2023-04-28T11:19:56.856Z,18.70
2023-04-28T11:20:56.797Z,15.30
2023-04-28T11:21:56.815Z,15.60
2023-04-28T11:22:56.745Z,14.80
2023-04-28T11:23:56.801Z,15.00
2023-04-28T11:24:56.824Z,14.70
2023-04-28T11:25:56.839Z,18.40
2023-04-28T11:26:56.762Z,15.50
2023-04-28T11:27:56.756Z,16.50
2023-04-28T11:28:56.711Z,16.20
2023-04-28T11:29:56.683Z,15.70
2023-04-28T11:30:57.699Z,15.00
2023-04-28T11:31:56.848Z,15.30
2023-04-28T11:32:56.751Z,15.10
2023-04-28T11:33:56.721Z,14.10
2023-04-28T11:34:56.657Z,17.90
2023-04-28T11:35:56.650Z,14.30
2023-04-28T11:36:56.641Z,15.80
2023-04-28T11:37:56.648Z,15.40
2023-04-28T11:38:56.691Z,14.20
2023-04-28T11:45:09.318Z,22.40
2023-04-28T11:45:37.856Z,14.80
2023-04-28T11:46:37.760Z,19.30
2023-04-28T11:47:37.813Z,14.60
2023-04-28T11:48:37.791Z,14.20
2023-04-28T11:49:39.038Z,13.70
2023-04-28T11:50:38.729Z,14.40
2023-04-28T11:51:37.708Z,15.00
2023-04-28T11:52:37.772Z,15.20
2023-04-28T11:53:37.689Z,15.10
2023-04-28T11:54:37.742Z,15.10
2023-04-28T11:55:38.765Z,14.60
2023-04-28T11:56:37.705Z,15.40
2023-04-28T11:57:37.865Z,17.40
2023-04-28T11:58:38.682Z,16.50
2023-04-28T11:59:38.315Z,17.30
2023-04-28T12:00:37.682Z,15.60
2023-04-28T12:01:37.675Z,16.20
2023-04-28T12:02:37.822Z,15.60
2023-04-28T12:03:37.980Z,18.60
2023-04-28T12:04:37.691Z,17.10
2023-04-28T12:05:38.928Z,16.50
2023-04-28T12:06:38.877Z,17.20
2023-04-28T12:07:37.645Z,17.20
2023-04-28T12:08:37.616Z,17.30
2023-04-28T12:09:37.689Z,17.20
2023-04-28T12:10:37.591Z,16.70
2023-04-28T12:11:37.577Z,17.70
2023-04-28T12:12:49.869Z,17.20
2023-04-28T12:13:39.559Z,15.60
2023-04-28T12:14:37.577Z,16.70
2023-04-28T12:15:37.601Z,20.60
2023-04-28T12:16:37.605Z,16.80
2023-04-28T12:17:37.561Z,16.90
2023-04-28T12:18:37.673Z,19.30
2023-04-28T12:19:37.585Z,19.60
2023-04-28T12:20:37.784Z,16.60
2023-04-28T12:21:38.599Z,17.10
2023-04-28T12:22:38.598Z,16.00
2023-04-28T12:23:37.513Z,17.10
2023-04-28T12:24:37.497Z,19.20
2023-04-28T12:25:37.748Z,17.50
2023-04-28T12:26:37.504Z,17.20
2023-04-28T12:27:38.835Z,16.90
2023-04-28T12:28:38.487Z,16.60
2023-04-28T12:29:37.477Z,16.60
2023-04-28T12:30:37.601Z,16.30
2023-04-28T12:31:37.493Z,19.10
2023-04-28T12:32:37.525Z,21.80
2023-04-28T12:33:38.484Z,16.10
2023-04-28T12:34:37.461Z,16.90
2023-04-28T12:35:37.421Z,21.40
2023-04-28T12:36:37.453Z,17.20
2023-04-28T12:37:37.427Z,16.00
2023-04-28T12:38:37.424Z,15.90
2023-04-28T12:39:39.548Z,15.20
2023-04-28T12:40:37.416Z,15.10
2023-04-28T12:41:37.406Z,14.30
2023-04-28T12:42:37.382Z,15.60
2023-04-28T12:43:37.389Z,15.20
2023-04-28T12:44:37.371Z,14.30
2023-04-28T12:45:38.892Z,14.80
2023-04-28T12:46:38.396Z,14.50
2023-04-28T12:47:37.387Z,14.00
2023-04-28T12:48:37.339Z,15.20
2023-04-28T12:49:37.392Z,15.60
2023-04-28T12:50:37.312Z,15.90
2023-04-28T12:51:38.943Z,15.00
2023-04-28T12:52:38.334Z,15.90
2023-04-28T12:53:37.283Z,14.80
2023-04-28T12:54:37.284Z,16.10
2023-04-28T12:55:37.283Z,15.30
2023-04-28T12:56:37.268Z,15.40
2023-04-28T12:57:39.060Z,16.00
2023-04-28T12:58:37.244Z,15.30
2023-04-28T12:59:37.258Z,17.10